Time;durP1;ratioP1;P1;durP2;ratioP2;P2;SDS_P1;SDS_P2;PMS_P1;PMS_P2;Temp;Humidity;BMP_temperature;BMP_pressure;BME280_temperature;BME280_humidity;BME280_pressure;Samples;Min_cycle;Max_cycle;Signal;HPM_P1;HPM_P2
2021/12/03 00:00:43;;;;;;;3.90;0.70;;;;;;;-0.36;100.00;100764.44;5033222;28;20037;-76
2021/12/03 00:03:10;;;;;;;2.58;1.00;;;;;;;-0.33;100.00;100783.25;5031744;28;20040;-76
2021/12/03 00:05:35;;;;;;;1.65;0.98;;;;;;;-0.41;100.00;100777.66;5029662;28;20087;-76
2021/12/03 00:08:01;;;;;;;1.90;1.20;;;;;;;-0.38;100.00;100787.03;5025110;28;20054;-76
2021/12/03 00:10:27;;;;;;;4.32;1.02;;;;;;;-0.45;100.00;100776.16;5042052;28;20048;-76
2021/12/03 00:12:54;;;;;;;3.17;1.23;;;;;;;-0.44;100.00;100781.22;5029864;28;20065;-76
2021/12/03 00:15:23;;;;;;;1.63;0.93;;;;;;;-0.42;100.00;100776.78;5029890;28;20033;-76
2021/12/03 00:17:49;;;;;;;3.55;1.15;;;;;;;-0.38;100.00;100771.47;5029925;28;20041;-76
2021/12/03 00:20:16;;;;;;;1.65;0.90;;;;;;;-0.30;100.00;100779.69;5039076;28;20033;-76
2021/12/03 00:22:46;;;;;;;4.15;0.82;;;;;;;-0.28;100.00;100770.06;5035280;28;20045;-76
2021/12/03 00:25:12;;;;;;;2.75;1.10;;;;;;;-0.35;100.00;100742.75;5038479;28;20022;-76
2021/12/03 00:27:38;;;;;;;1.58;1.00;;;;;;;-0.26;100.00;100747.44;5037063;28;20025;-76
2021/12/03 00:30:07;;;;;;;2.10;1.00;;;;;;;-0.07;100.00;100771.47;5032507;28;20104;-77
2021/12/03 00:32:32;;;;;;;7.72;1.08;;;;;;;-0.07;100.00;100760.25;5030036;28;20049;-76
2021/12/03 00:34:58;;;;;;;1.70;1.50;;;;;;;0.00;100.00;100772.00;5029589;28;20021;-75
2021/12/03 00:37:24;;;;;;;6.43;0.80;;;;;;;0.07;100.00;100773.34;5032245;28;20030;-78
2021/12/03 00:39:49;;;;;;;4.00;1.38;;;;;;;0.09;100.00;100774.09;5028090;28;20056;-77
2021/12/03 00:42:17;;;;;;;4.20;1.23;;;;;;;0.10;100.00;100772.31;5035882;28;20049;-76
2021/12/03 00:44:45;;;;;;;1.92;0.95;;;;;;;0.17;100.00;100777.09;5028712;28;20041;-76
2021/12/03 00:47:11;;;;;;;7.22;1.27;;;;;;;0.19;100.00;100766.63;5029985;28;20109;-76
2021/12/03 00:49:39;;;;;;;1.77;0.90;;;;;;;0.11;100.00;100745.44;5031209;28;20095;-76
2021/12/03 00:52:05;;;;;;;1.05;0.60;;;;;;;0.27;100.00;100769.63;5028090;28;20477;-76
2021/12/03 00:54:31;;;;;;;2.28;1.30;;;;;;;0.21;100.00;100756.97;5031552;28;20044;-76
2021/12/03 00:56:56;;;;;;;1.38;0.73;;;;;;;0.39;100.00;100779.34;5032205;28;20037;-76
2021/12/03 00:59:21;;;;;;;0.80;0.50;;;;;;;0.42;100.00;100793.06;5029307;28;20395;-76
2021/12/03 01:01:47;;;;;;;3.88;1.00;;;;;;;0.46;100.00;100794.53;5035187;28;20569;-76
2021/12/03 01:04:12;;;;;;;1.45;0.80;;;;;;;0.51;100.00;100795.13;5014973;28;20482;-76
2021/12/03 01:06:37;;;;;;;2.72;0.90;;;;;;;0.53;100.00;100801.09;5029379;28;20115;-76
2021/12/03 01:09:04;;;;;;;1.00;0.60;;;;;;;0.41;100.00;100784.41;5025367;28;20039;-76
2021/12/03 01:11:29;;;;;;;6.63;0.93;;;;;;;0.57;100.00;100807.78;5035612;28;20358;-76
2021/12/03 01:13:59;;;;;;;4.28;0.82;;;;;;;0.60;100.00;100811.03;5035220;28;20061;-76
2021/12/03 01:16:26;;;;;;;3.30;0.90;;;;;;;0.59;100.00;100814.56;5037569;28;20381;-75
2021/12/03 01:18:51;;;;;;;1.42;0.60;;;;;;;0.52;100.00;100799.41;5044574;28;20269;-76
2021/12/03 01:21:17;;;;;;;8.88;1.00;;;;;;;0.47;100.00;100791.88;5030985;28;20124;-76
2021/12/03 01:23:42;;;;;;;1.45;0.60;;;;;;;0.62;100.00;100818.75;5010708;28;20041;-76
2021/12/03 01:26:08;;;;;;;2.47;0.80;;;;;;;0.52;100.00;100800.25;5005793;28;20084;-76
2021/12/03 01:28:33;;;;;;;3.65;1.23;;;;;;;0.65;100.00;100830.72;5027640;28;20064;-76
2021/12/03 01:30:59;;;;;;;1.05;0.80;;;;;;;0.68;100.00;100840.94;5027690;28;20036;-76
2021/12/03 01:33:25;;;;;;;1.50;0.77;;;;;;;0.57;100.00;100821.59;5026622;28;20476;-76
2021/12/03 01:35:51;;;;;;;1.30;0.82;;;;;;;0.68;100.00;100836.59;5024616;28;20038;-75
2021/12/03 01:38:16;;;;;;;1.63;0.68;;;;;;;0.70;100.00;100839.94;5028141;28;20041;-75
2021/12/03 01:40:42;;;;;;;11.60;1.13;;;;;;;0.71;100.00;100819.97;5026905;28;20025;-75
2021/12/03 01:43:10;;;;;;;0.95;0.50;;;;;;;0.77;100.00;100799.69;5030411;28;20027;-75
2021/12/03 01:45:37;;;;;;;1.02;0.77;;;;;;;0.68;100.00;100789.00;5029233;28;20037;-75
2021/12/03 01:48:03;;;;;;;2.20;0.73;;;;;;;0.63;100.00;100799.63;5023275;28;20117;-75
2021/12/03 01:50:38;;;;;;;2.30;0.82;;;;;;;0.45;100.00;100783.31;5024241;28;20029;-74
2021/12/03 01:53:04;;;;;;;5.85;1.90;;;;;;;0.47;100.00;100791.88;5021576;28;20092;-74
2021/12/03 01:55:30;;;;;;;2.28;0.55;;;;;;;0.42;100.00;100774.91;5024445;28;20128;-74
2021/12/03 01:57:55;;;;;;;3.75;1.27;;;;;;;0.49;100.00;100789.19;5028327;28;20196;-74
2021/12/03 02:00:34;;;;;;;4.60;1.02;;;;;;;0.42;100.00;100782.69;5022461;28;20021;-74
2021/12/03 02:02:59;;;;;;;5.15;1.70;;;;;;;0.49;100.00;100789.19;5036940;28;20152;-73
2021/12/03 02:05:25;;;;;;;1.70;0.88;;;;;;;0.59;100.00;100811.97;5025346;28;20159;-73
2021/12/03 02:07:51;;;;;;;3.13;1.08;;;;;;;0.65;100.00;100807.34;5037865;28;20089;-73
2021/12/03 02:10:20;;;;;;;2.53;0.80;;;;;;;0.68;100.00;100797.63;5025265;28;20099;-73
2021/12/03 02:12:47;;;;;;;3.90;1.60;;;;;;;0.54;100.00;100766.38;5028933;28;20423;-72
2021/12/03 02:15:13;;;;;;;2.15;1.10;;;;;;;0.82;100.00;100813.22;5023746;28;20044;-73
2021/12/03 02:17:39;;;;;;;2.60;1.52;;;;;;;0.82;100.00;100815.81;5023504;28;20069;-73
2021/12/03 02:20:08;;;;;;;2.08;1.00;;;;;;;0.91;100.00;100832.66;5009552;28;20033;-73
2021/12/03 02:22:34;;;;;;;8.20;1.30;;;;;;;0.91;100.00;100832.66;5025015;28;20025;-73
2021/12/03 02:24:59;;;;;;;3.63;1.17;;;;;;;0.94;100.00;100829.91;5022697;28;20095;-73
2021/12/03 02:27:24;;;;;;;2.15;0.95;;;;;;;0.71;100.00;100784.44;5021411;28;20348;-73
2021/12/03 02:29:50;;;;;;;4.57;1.63;;;;;;;0.86;100.00;100782.72;5009430;28;20038;-73
2021/12/03 02:32:15;;;;;;;2.85;0.70;;;;;;;0.95;100.00;100805.56;5024340;28;20401;-73
2021/12/03 02:34:41;;;;;;;2.20;1.02;;;;;;;0.97;100.00;100805.50;5027650;28;20548;-73
2021/12/03 02:37:06;;;;;;;4.68;1.52;;;;;;;0.93;100.00;100804.81;5022954;28;20038;-73
2021/12/03 02:39:32;;;;;;;2.97;0.65;;;;;;;0.90;100.00;100809.38;5020924;28;20036;-73
2021/12/03 02:41:57;;;;;;;2.75;1.30;;;;;;;0.72;100.00;100804.31;5024198;28;20051;-72
2021/12/03 02:44:23;;;;;;;3.20;0.98;;;;;;;0.61;100.00;100783.31;5024750;28;20117;-73
2021/12/03 02:46:48;;;;;;;5.85;1.38;;;;;;;0.51;100.00;100779.56;5034216;28;20029;-73
2021/12/03 02:49:15;;;;;;;3.25;0.98;;;;;;;0.41;100.00;100776.63;5026574;28;20030;-73
2021/12/03 02:51:42;;;;;;;2.25;1.13;;;;;;;0.38;100.00;100775.03;5025039;28;20037;-73
2021/12/03 02:54:07;;;;;;;5.13;1.40;;;;;;;0.15;100.00;100749.53;5031275;28;20090;-73
2021/12/03 02:56:33;;;;;;;1.60;1.25;;;;;;;0.27;100.00;100769.63;5027147;28;20108;-73
2021/12/03 02:58:58;;;;;;;1.90;1.25;;;;;;;0.28;100.00;100768.69;5010613;28;20041;-73
2021/12/03 03:01:24;;;;;;;3.47;1.38;;;;;;;0.19;100.00;100766.63;5032521;28;20037;-73
2021/12/03 03:03:49;;;;;;;4.03;1.10;;;;;;;0.24;100.00;100758.56;5012304;28;20180;-73
2021/12/03 03:06:15;;;;;;;5.35;1.20;;;;;;;0.22;100.00;100753.47;5026367;28;20053;-73
2021/12/03 03:08:42;;;;;;;5.20;1.05;;;;;;;0.34;100.00;100755.38;5024804;28;20136;-73
2021/12/03 03:11:08;;;;;;;5.72;1.45;;;;;;;0.37;100.00;100765.59;5025329;28;20064;-72
2021/12/03 03:13:35;;;;;;;2.25;1.30;;;;;;;0.37;100.00;100755.22;5024683;28;20540;-72
2021/12/03 03:16:01;;;;;;;3.55;1.40;;;;;;;0.32;100.00;100754.63;5027113;28;20037;-72
2021/12/03 03:18:28;;;;;;;1.65;1.20;;;;;;;0.25;100.00;100745.50;5010689;28;20026;-72
2021/12/03 03:20:59;;;;;;;2.70;1.33;;;;;;;0.29;100.00;100760.00;5023670;28;20068;-72
2021/12/03 03:23:25;;;;;;;3.20;1.42;;;;;;;0.24;100.00;100746.44;5028405;28;20072;-72
2021/12/03 03:25:51;;;;;;;2.40;1.02;;;;;;;0.22;100.00;100750.88;5033781;28;20025;-72
2021/12/03 03:28:17;;;;;;;5.90;1.35;;;;;;;0.24;100.00;100738.66;5026552;28;20032;-73
2021/12/03 03:30:46;;;;;;;2.33;1.05;;;;;;;0.26;100.00;100738.56;5023999;28;20087;-72
2021/12/03 03:33:13;;;;;;;6.40;1.73;;;;;;;0.27;100.00;100741.06;5026742;28;21427;-73
2021/12/03 03:35:39;;;;;;;4.53;1.88;;;;;;;0.27;100.00;100735.06;5013549;28;20018;-73
2021/12/03 03:38:05;;;;;;;1.65;1.13;;;;;;;0.20;100.00;100742.34;5025453;28;20037;-73
2021/12/03 03:40:31;;;;;;;2.70;1.73;;;;;;;-0.02;100.00;100712.41;5024054;28;20037;-73
2021/12/03 03:42:58;;;;;;;2.47;1.23;;;;;;;0.10;100.00;100733.41;5028948;28;20052;-73
2021/12/03 03:45:25;;;;;;;5.43;1.60;;;;;;;0.08;100.00;100730.88;5023909;28;20466;-73
2021/12/03 03:47:51;;;;;;;1.85;1.15;;;;;;;0.09;100.00;100724.78;5020387;28;20037;-73
2021/12/03 03:50:19;;;;;;;2.55;1.73;;;;;;;0.11;100.00;100716.88;5035281;28;20048;-73
2021/12/03 03:52:45;;;;;;;5.15;1.80;;;;;;;0.16;100.00;100710.53;5024550;28;20033;-73
2021/12/03 03:55:13;;;;;;;8.80;2.63;;;;;;;0.07;100.00;100692.88;5022965;28;20029;-73
2021/12/03 03:57:39;;;;;;;3.35;1.90;;;;;;;0.16;100.00;100696.72;5024947;28;20083;-74
2021/12/03 04:00:08;;;;;;;5.15;2.72;;;;;;;0.29;100.00;100708.06;5021531;28;20440;-73
2021/12/03 04:02:33;;;;;;;4.25;2.72;;;;;;;0.31;100.00;100718.38;5019266;28;20026;-73
2021/12/03 04:04:59;;;;;;;6.15;3.05;;;;;;;0.16;100.00;100679.38;5024220;28;20029;-73
2021/12/03 04:07:24;;;;;;;6.22;3.90;;;;;;;0.29;100.00;100694.28;5024261;28;20049;-73
2021/12/03 04:09:50;;;;;;;6.50;4.22;;;;;;;0.25;100.00;100684.97;5027462;28;20104;-72
2021/12/03 04:12:15;;;;;;;7.70;3.92;;;;;;;0.40;100.00;100703.09;5024129;28;20808;-73
2021/12/03 04:14:40;;;;;;;8.82;4.18;;;;;;;0.34;100.00;100685.28;5026395;28;20040;-72
2021/12/03 04:17:06;;;;;;;13.13;4.97;;;;;;;0.31;100.00;100672.47;5023813;28;20929;-72
2021/12/03 04:19:31;;;;;;;12.82;7.53;;;;;;;0.46;100.00;100698.47;5023784;28;20029;-73
2021/12/03 04:21:57;;;;;;;11.85;6.30;;;;;;;0.44;100.00;100687.38;5026778;28;20041;-73
2021/12/03 04:24:22;;;;;;;13.70;7.88;;;;;;;0.49;100.00;100690.53;5025991;28;20630;-73
2021/12/03 04:26:48;;;;;;;13.80;7.47;;;;;;;0.44;100.00;100683.00;5027491;28;20029;-73
2021/12/03 04:29:13;;;;;;;13.27;7.10;;;;;;;0.47;100.00;100680.22;5025003;28;20544;-73
2021/12/03 04:31:39;;;;;;;17.20;10.00;;;;;;;0.45;100.00;100673.44;5027923;28;20060;-73
2021/12/03 04:34:04;;;;;;;16.15;7.80;;;;;;;0.56;100.00;100689.22;4993473;28;20080;-73
2021/12/03 04:36:30;;;;;;;14.05;7.80;;;;;;;0.58;100.00;100689.97;5010996;28;20044;-73
2021/12/03 04:38:55;;;;;;;17.27;8.35;;;;;;;0.60;100.00;100693.31;5030604;28;20038;-74
2021/12/03 04:41:21;;;;;;;16.38;9.18;;;;;;;0.62;100.00;100691.47;5022382;28;20053;-74
2021/12/03 04:43:46;;;;;;;14.73;8.98;;;;;;;0.59;100.00;100686.47;5024183;28;20037;-73
2021/12/03 04:46:11;;;;;;;12.52;7.68;;;;;;;0.61;100.00;100697.59;5021859;28;20061;-73
2021/12/03 04:48:37;;;;;;;14.93;8.80;;;;;;;0.53;100.00;100671.25;5020967;28;20065;-73
2021/12/03 04:51:02;;;;;;;14.40;9.77;;;;;;;0.63;100.00;100690.53;5025538;28;20026;-72
2021/12/03 04:53:28;;;;;;;15.82;9.65;;;;;;;0.56;100.00;100676.25;5023538;28;20582;-72
2021/12/03 04:55:53;;;;;;;18.17;11.43;;;;;;;0.49;100.00;100672.34;5025470;28;20103;-72
2021/12/03 04:58:19;;;;;;;18.50;11.35;;;;;;;0.58;100.00;100688.22;5007197;28;20136;-72
2021/12/03 05:00:48;;;;;;;15.27;10.02;;;;;;;0.59;100.00;100687.31;5021755;28;20069;-73
2021/12/03 05:03:14;;;;;;;19.15;11.85;;;;;;;0.59;100.00;100681.28;5019604;28;20425;-73
2021/12/03 05:05:45;;;;;;;17.10;9.63;;;;;;;0.58;100.00;100675.22;5025382;28;20037;-73
2021/12/03 05:08:11;;;;;;;;;;;;;;;0.56;100.00;100665.84;5023234;28;20486;-74
2021/12/03 05:10:39;;;;;;;15.23;10.35;;;;;;;0.42;100.00;100656.28;5023531;28;19931;-72
2021/12/03 05:13:11;;;;;;;16.88;10.63;;;;;;;0.47;100.00;100654.25;5024257;28;20053;-72
2021/12/03 05:15:38;;;;;;;16.13;10.75;;;;;;;0.46;100.00;100652.59;5024529;28;20052;-74
2021/12/03 05:18:05;;;;;;;25.65;11.75;;;;;;;0.54;100.00;100654.72;5022845;28;20025;-74
2021/12/03 05:20:31;;;;;;;26.45;14.43;;;;;;;0.42;100.00;100638.13;5028080;28;20040;-74
2021/12/03 05:22:57;;;;;;;18.05;10.38;;;;;;;0.56;100.00;100655.47;5003726;28;20045;-74
2021/12/03 05:25:22;;;;;;;24.75;14.70;;;;;;;0.56;100.00;100652.88;5020591;28;20135;-73
2021/12/03 05:27:49;;;;;;;19.05;12.35;;;;;;;0.59;100.00;100647.50;5022154;28;20113;-74
2021/12/03 05:30:15;;;;;;;18.00;10.68;;;;;;;0.46;100.00;100623.16;5017595;28;20041;-74
2021/12/03 05:32:40;;;;;;;18.83;11.02;;;;;;;0.59;100.00;100637.94;5022876;28;20061;-73
2021/12/03 05:35:07;;;;;;;16.73;10.65;;;;;;;0.59;100.00;100642.31;5023322;28;20061;-73
2021/12/03 05:37:32;;;;;;;17.52;11.65;;;;;;;0.59;100.00;100639.72;5022031;28;20494;-74
2021/12/03 05:39:58;;;;;;;17.85;11.73;;;;;;;0.48;100.00;100624.78;5025993;28;20044;-74
2021/12/03 05:42:24;;;;;;;15.55;9.23;;;;;;;0.56;100.00;100639.88;5022499;28;20029;-73
2021/12/03 05:44:49;;;;;;;10.98;7.13;;;;;;;0.49;100.00;100633.41;5021689;28;20044;-72
2021/12/03 05:47:14;;;;;;;15.25;10.13;;;;;;;0.33;100.00;100607.50;5022906;28;20999;-74
2021/12/03 05:49:40;;;;;;;21.80;11.98;;;;;;;0.34;100.00;100619.53;5002809;28;20041;-74
2021/12/03 05:52:05;;;;;;;17.80;10.95;;;;;;;0.43;100.00;100628.56;5011191;28;20036;-74
2021/12/03 05:54:31;;;;;;;15.93;10.43;;;;;;;0.39;100.00;100628.75;5018584;28;20095;-74
2021/12/03 05:56:56;;;;;;;15.93;9.65;;;;;;;0.36;100.00;100641.06;5021878;28;20049;-74
2021/12/03 05:59:22;;;;;;;19.48;11.30;;;;;;;0.34;100.00;100635.13;5014205;28;20443;-74
2021/12/03 06:01:47;;;;;;;17.65;10.52;;;;;;;0.29;100.00;100637.16;5014318;28;20025;-74
2021/12/03 06:04:13;;;;;;;20.83;12.05;;;;;;;0.28;100.00;100638.91;5011927;28;20083;-73
2021/12/03 06:06:38;;;;;;;22.63;11.93;;;;;;;0.13;100.00;100611.25;5001508;28;20045;-74
2021/12/03 06:09:04;;;;;;;19.90;10.77;;;;;;;0.28;100.00;100636.31;5013971;28;20470;-74
2021/12/03 06:11:29;;;;;;;20.90;11.45;;;;;;;0.14;100.00;100629.31;5015836;28;20378;-73
2021/12/03 06:13:55;;;;;;;16.77;11.32;;;;;;;0.24;100.00;100636.56;5014003;28;20053;-73
2021/12/03 06:16:20;;;;;;;15.18;9.20;;;;;;;0.16;100.00;100622.28;5020625;28;20126;-73
2021/12/03 06:18:46;;;;;;;16.65;10.48;;;;;;;0.10;100.00;100611.44;5019301;28;20048;-72
2021/12/03 06:21:12;;;;;;;18.38;11.00;;;;;;;0.18;100.00;100625.63;5020589;28;20593;-72
2021/12/03 06:23:39;;;;;;;15.35;9.45;;;;;;;0.22;100.00;100625.44;5029475;28;20030;-72
2021/12/03 06:26:05;;;;;;;18.52;11.07;;;;;;;0.33;100.00;100633.47;5022317;28;20052;-73
2021/12/03 06:28:32;;;;;;;15.77;9.63;;;;;;;0.33;100.00;100639.50;5021745;28;20033;-72
2021/12/03 06:30:58;;;;;;;16.40;9.80;;;;;;;0.26;100.00;100616.56;5020427;28;20046;-73
2021/12/03 06:33:24;;;;;;;16.38;9.88;;;;;;;0.42;100.00;100637.28;5023099;28;20550;-73
2021/12/03 06:35:50;;;;;;;14.18;10.25;;;;;;;0.44;100.00;100632.84;5013375;28;20045;-72
2021/12/03 06:38:16;;;;;;;17.73;10.88;;;;;;;0.44;100.00;100625.88;5017521;28;20077;-72
2021/12/03 06:40:42;;;;;;;18.27;10.23;;;;;;;0.44;100.00;100641.47;5017498;28;20060;-72
2021/12/03 06:43:08;;;;;;;15.40;9.45;;;;;;;0.43;100.00;100644.13;5015914;28;20042;-73
2021/12/03 06:45:34;;;;;;;15.43;9.20;;;;;;;0.40;100.00;100640.78;5036106;28;20087;-72
2021/12/03 06:47:59;;;;;;;21.50;12.10;;;;;;;0.34;100.00;100625.56;5002527;28;20436;-72
2021/12/03 06:50:25;;;;;;;17.35;9.70;;;;;;;0.45;100.00;100622.34;5016613;28;20069;-72
2021/12/03 06:52:55;;;;;;;16.48;9.82;;;;;;;0.60;100.00;100621.44;5016922;28;20544;-73
2021/12/03 06:55:22;;;;;;;17.20;11.25;;;;;;;0.73;100.00;100626.72;5015717;28;20083;-73
2021/12/03 06:57:47;;;;;;;22.92;12.38;;;;;;;0.81;100.00;100616.72;5018434;28;20040;-73
2021/12/03 07:00:14;;;;;;;22.00;17.20;;;;;;;0.84;100.00;100596.69;5015873;28;20405;-73
2021/12/03 07:02:40;;;;;;;18.40;11.93;;;;;;;0.93;100.00;100601.31;5021692;28;20084;-73
2021/12/03 07:05:07;;;;;;;30.33;18.75;;;;;;;0.92;100.00;100597.88;5026339;28;20025;-72
2021/12/03 07:07:33;;;;;;;18.25;13.00;;;;;;;0.99;100.00;100611.34;5019912;28;20042;-72
2021/12/03 07:09:58;;;;;;;23.35;14.30;;;;;;;0.96;100.00;100596.75;5017691;28;20406;-72
2021/12/03 07:12:23;;;;;;;15.60;10.73;;;;;;;0.93;100.00;100583.13;5020087;28;20069;-73
2021/12/03 07:14:49;;;;;;;21.20;11.00;;;;;;;0.97;100.00;100602.78;5010136;28;20046;-72
2021/12/03 07:17:14;;;;;;;28.48;14.35;;;;;;;0.81;100.00;100579.53;5028583;28;20355;-72
2021/12/03 07:19:40;;;;;;;20.20;11.75;;;;;;;0.91;100.00;100604.00;5022542;28;20037;-74
2021/12/03 07:22:05;;;;;;;16.75;11.15;;;;;;;0.92;100.00;100597.06;5023586;28;20064;-73
2021/12/03 07:24:31;;;;;;;18.67;12.65;;;;;;;0.90;100.00;100596.31;5001340;28;20152;-73
2021/12/03 07:26:56;;;;;;;21.15;12.82;;;;;;;0.90;100.00;100598.91;5016066;28;20033;-73
2021/12/03 07:29:22;;;;;;;22.80;11.45;;;;;;;0.85;100.00;100583.59;5027814;28;20033;-73
2021/12/03 07:31:47;;;;;;;26.30;12.13;;;;;;;0.90;100.00;100591.13;5018288;28;20046;-73
2021/12/03 07:34:14;;;;;;;19.30;10.38;;;;;;;0.79;100.00;100569.22;5020120;28;20038;-73
2021/12/03 07:36:40;;;;;;;15.60;10.02;;;;;;;0.91;100.00;100579.78;5020203;28;20052;-73
2021/12/03 07:39:05;;;;;;;11.93;8.40;;;;;;;0.89;100.00;100581.63;5022190;28;20372;-73
2021/12/03 07:41:31;;;;;;;16.77;11.88;;;;;;;0.91;100.00;100592.78;5025992;28;20494;-73
2021/12/03 07:43:56;;;;;;;18.52;13.10;;;;;;;0.89;100.00;100589.44;5025422;28;20049;-73
2021/12/03 07:46:21;;;;;;;15.32;9.75;;;;;;;0.75;100.00;100566.91;5019570;28;20037;-73
2021/12/03 07:48:48;;;;;;;19.25;10.73;;;;;;;0.78;100.00;100569.28;5019741;28;20029;-74
2021/12/03 07:51:15;;;;;;;15.43;10.32;;;;;;;0.75;100.00;100562.53;5023057;28;20121;-73
2021/12/03 07:53:40;;;;;;;14.55;10.23;;;;;;;0.77;100.00;100570.25;5023509;28;20040;-74
2021/12/03 07:56:08;;;;;;;15.45;9.95;;;;;;;0.95;100.00;100583.84;5019875;28;20399;-73
2021/12/03 07:58:33;;;;;;;14.30;7.63;;;;;;;1.02;100.00;100579.94;5038027;28;20025;-73
2021/12/03 08:00:59;;;;;;;13.23;8.23;;;;;;;0.91;100.00;100559.00;5022746;28;20056;-75
2021/12/03 08:03:25;;;;;;;11.50;6.32;;;;;;;1.02;100.00;100565.22;5026094;28;20120;-73
2021/12/03 08:05:51;;;;;;;15.00;6.45;;;;;;;1.10;100.00;100572.50;5022614;28;20604;-73
2021/12/03 08:08:23;;;;;;;12.32;6.60;;;;;;;1.01;100.00;100549.69;5018856;28;20093;-73
2021/12/03 08:10:50;;;;;;;10.38;6.47;;;;;;;1.16;100.00;100577.31;5024145;28;20029;-73
2021/12/03 08:13:15;;;;;;;12.07;6.88;;;;;;;1.13;100.00;100567.13;5033927;28;20046;-73
2021/12/03 08:15:41;;;;;;;11.25;6.10;;;;;;;1.17;100.00;100566.00;5025110;28;20034;-74
2021/12/03 08:18:06;;;;;;;13.30;6.10;;;;;;;1.21;100.00;100558.84;5026285;28;20094;-74
2021/12/03 08:20:32;;;;;;;10.40;6.75;;;;;;;1.18;100.00;100562.47;5013245;28;20034;-74
2021/12/03 08:22:59;;;;;;;9.95;6.65;;;;;;;1.16;100.00;100556.53;5024866;28;20041;-74
2021/12/03 08:25:26;;;;;;;8.00;5.93;;;;;;;1.22;100.00;100553.56;5024354;28;20030;-74
2021/12/03 08:27:51;;;;;;;9.82;5.00;;;;;;;1.12;100.00;100543.84;5026212;28;20056;-74
2021/12/03 08:30:16;;;;;;;8.02;5.45;;;;;;;1.25;100.00;100554.28;5018767;28;20017;-74
2021/12/03 08:32:42;;;;;;;11.13;6.05;;;;;;;1.02;100.00;100518.44;5022214;28;20116;-74
2021/12/03 08:35:08;;;;;;;6.40;5.05;;;;;;;1.24;100.00;100553.44;5010842;28;20485;-74
2021/12/03 08:37:34;;;;;;;6.68;4.43;;;;;;;1.19;100.00;100545.94;5022461;28;20028;-74
2021/12/03 08:39:59;;;;;;;8.35;5.45;;;;;;;1.28;100.00;100549.72;5023832;28;20094;-74
2021/12/03 08:42:24;;;;;;;6.43;4.60;;;;;;;1.34;100.00;100553.69;5021001;28;20502;-74
2021/12/03 08:44:50;;;;;;;10.05;5.03;;;;;;;1.27;100.00;100526.44;5010381;28;20533;-74
2021/12/03 08:47:17;;;;;;;9.02;6.07;;;;;;;1.39;100.00;100534.28;5025004;28;20033;-74
2021/12/03 08:50:02;;;;;;;7.70;5.88;;;;;;;1.43;100.00;100533.13;5020537;28;20534;-74
2021/12/03 08:55:19;;;;;;;;;;;;;;;1.59;100.00;100537.34;5022828;28;20053;-72
2021/12/03 08:57:45;;;;;;;6.30;3.97;;;;;;;1.49;100.00;100529.31;5021746;28;20107;-75
2021/12/03 09:00:17;;;;;;;6.45;4.15;;;;;;;1.56;100.00;100514.13;5025118;28;20054;-73
2021/12/03 09:02:44;;;;;;;11.50;5.38;;;;;;;1.77;100.00;100530.13;5040829;28;20115;-73
2021/12/03 09:05:10;;;;;;;19.75;5.30;;;;;;;1.80;100.00;100541.13;5018963;28;20076;-73
2021/12/03 09:07:36;;;;;;;10.20;4.75;;;;;;;1.83;100.00;100534.91;5025564;28;20080;-73
2021/12/03 09:10:05;;;;;;;14.32;4.75;;;;;;;1.82;100.00;100509.81;5021561;28;20056;-73
2021/12/03 09:12:30;;;;;;;9.32;4.65;;;;;;;1.67;100.00;100482.22;5004493;28;20037;-73
2021/12/03 09:15:03;;;;;;;12.07;4.55;;;;;;;1.85;100.00;100514.81;5030101;28;20381;-73
2021/12/03 09:20:04;;;;;;;7.38;4.10;;;;;;;1.73;100.00;100507.84;5022104;28;20045;-73
2021/12/03 09:22:54;;;;;;;9.40;4.10;;;;;;;1.83;100.00;100516.72;5018573;28;20697;-73
2021/12/03 09:25:32;;;;;;;9.02;4.10;;;;;;;1.84;100.00;100505.34;5022267;28;20083;-73
2021/12/03 09:28:02;;;;;;;9.45;4.72;;;;;;;1.81;100.00;100502.97;5024291;28;20041;-73
2021/12/03 09:30:34;;;;;;;10.05;5.57;;;;;;;1.78;100.00;100500.53;5024621;28;20500;-74
2021/12/03 09:33:00;;;;;;;9.40;4.43;;;;;;;1.69;100.00;100480.34;5023084;28;20037;-74
2021/12/03 09:35:26;;;;;;;10.45;5.97;;;;;;;1.82;100.00;100508.03;5007981;28;20033;-74
2021/12/03 09:37:52;;;;;;;9.45;5.20;;;;;;;1.75;100.00;100485.16;5023347;28;20037;-74
2021/12/03 09:40:23;;;;;;;12.95;7.82;;;;;;;1.80;100.00;100493.47;5024232;28;20044;-74
2021/12/03 09:42:48;;;;;;;16.00;9.27;;;;;;;1.68;100.00;100473.47;5020682;28;20458;-73
2021/12/03 09:45:14;;;;;;;17.65;9.70;;;;;;;1.81;100.00;100489.94;5018695;28;20061;-74
2021/12/03 09:47:40;;;;;;;16.33;8.35;;;;;;;1.81;100.00;100487.34;5023027;28;20125;-74
2021/12/03 09:50:12;;;;;;;15.60;9.30;;;;;;;1.75;100.00;100465.16;5023541;28;20041;-74
2021/12/03 09:55:13;;;;;;;21.48;9.40;;;;;;;1.91;100.00;100485.78;5028058;28;20071;-73
2021/12/03 09:57:45;;;;;;;16.52;8.38;;;;;;;1.96;100.00;100473.31;5018359;28;20033;-74
2021/12/03 10:00:55;;;;;;;;;;;;;;;1.97;100.00;100467.16;5025577;28;20052;-74
2021/12/03 10:14:36;;;;;;;13.20;9.38;;;;;;;2.00;100.00;100438.31;4965480;28;20035;-74
2021/12/03 10:29:12;;;;;;;16.70;10.82;;;;;;;2.11;100.00;100413.31;4925062;29;20054;-73
2021/12/03 10:34:02;;;;;;;22.92;9.63;;;;;;;2.14;100.00;100398.31;4924293;29;20733;-74
2021/12/03 10:44:54;;;;;;;20.20;10.55;;;;;;;2.34;100.00;100378.69;4870675;29;20045;-74
2021/12/03 10:48:18;;;;;;;21.27;10.18;;;;;;;2.28;100.00;100384.31;4875042;28;20145;-74
2021/12/03 11:06:40;;;;;;;20.08;8.13;;;;;;;2.33;100.00;100345.78;5024931;28;20045;-74
2021/12/03 12:09:09;;;;;;;17.05;7.60;;;;;;;2.01;100.00;100208.31;5021645;28;20064;-74
2021/12/03 14:39:59;;;;;;;7.25;4.72;;;;;;;2.77;100.00;100042.06;5013887;28;20041;-73
2021/12/03 14:55:40;;;;;;;9.63;4.22;;;;;;;2.88;100.00;100041.22;5024955;28;20409;-73
2021/12/03 14:58:11;;;;;;;8.73;4.97;;;;;;;2.79;100.00;100037.56;5022479;28;20112;-73
2021/12/03 15:08:36;;;;;;;6.32;4.15;;;;;;;2.90;100.00;100052.38;5020566;28;20053;-73
2021/12/03 15:27:23;;;;;;;9.20;5.45;;;;;;;2.88;100.00;100056.88;5016291;28;20103;-73
2021/12/03 15:35:07;;;;;;;10.52;5.63;;;;;;;2.69;100.00;100023.59;5021150;28;20054;-73
2021/12/03 15:40:22;;;;;;;10.82;7.25;;;;;;;2.77;100.00;100044.66;5022403;28;20528;-73
2021/12/03 15:56:41;;;;;;;12.85;10.10;;;;;;;2.67;100.00;100026.31;5018432;28;20367;-74
2021/12/03 16:04:32;;;;;;;13.18;8.30;;;;;;;2.67;100.00;100028.09;5018665;28;20049;-73
2021/12/03 16:22:44;;;;;;;17.23;10.60;;;;;;;2.85;100.00;100028.41;5023175;28;19921;-74
2021/12/03 16:25:22;;;;;;;16.55;10.18;;;;;;;2.90;100.00;100036.72;5020328;28;20041;-73
2021/12/03 16:52:10;;;;;;;26.13;14.48;;;;;;;2.75;100.00;99999.66;5019081;28;19928;-74
2021/12/03 16:54:45;;;;;;;21.33;12.07;;;;;;;2.91;100.00;100021.91;5022307;28;20053;-74
2021/12/03 16:57:12;;;;;;;24.13;15.32;;;;;;;2.88;100.00;100013.38;5024590;28;20397;-74
2021/12/03 16:59:40;;;;;;;30.38;17.20;;;;;;;2.86;100.00;100007.47;5019145;28;20042;-74
2021/12/03 17:02:12;;;;;;;35.00;19.35;;;;;;;2.80;100.00;99994.09;5034315;28;20033;-74
2021/12/03 17:04:49;;;;;;;29.55;19.02;;;;;;;2.87;100.00;100003.91;5014041;28;20034;-74
2021/12/03 17:12:59;;;;;;;27.92;16.42;;;;;;;2.91;100.00;99993.25;5044799;28;20036;-74
2021/12/03 17:45:15;;;;;;;21.83;13.10;;;;;;;3.04;100.00;100009.56;5038846;28;20050;-74
2021/12/03 17:50:40;;;;;;;17.45;10.52;;;;;;;3.03;100.00;100006.13;5015325;28;20405;-74
2021/12/03 17:56:13;;;;;;;19.67;12.07;;;;;;;3.02;100.00;100001.84;5020133;28;20034;-74
2021/12/03 17:58:42;;;;;;;27.15;16.10;;;;;;;2.98;100.00;99992.63;5003973;28;20037;-74
2021/12/03 18:01:24;;;;;;;23.52;14.80;;;;;;;3.04;100.00;99997.34;5019047;28;20058;-74
2021/12/03 18:17:30;;;;;;;24.13;14.15;;;;;;;3.04;100.00;99984.31;5026342;28;20528;-73
2021/12/03 18:45:16;;;;;;;35.53;17.92;;;;;;;3.22;100.00;99974.22;5016242;28;20065;-74
2021/12/03 18:53:08;;;;;;;28.95;17.67;;;;;;;3.19;100.00;99995.28;5004725;28;20044;-74
2021/12/03 18:58:05;;;;;;;18.67;11.75;;;;;;;3.23;100.00;99988.88;5017254;28;20099;-73